Time;durP1;ratioP1;P1;durP2;ratioP2;P2;SDS_P1;SDS_P2;PMS_P1;PMS_P2;Temp;Humidity;BMP_temperature;BMP_pressure;BME280_temperature;BME280_humidity;BME280_pressure;Samples;Min_cycle;Max_cycle;Signal;HPM_P1;HPM_P2
2022/03/11 05:01:48;;;;;;;16.08;9.13;;;0.20;97.30;;;;;;5327543;23;96709;-77
2022/03/11 05:04:13;;;;;;;15.23;8.45;;;0.00;97.80;;;;;;4977166;28;97731;-77
2022/03/11 05:06:39;;;;;;;16.92;9.25;;;-0.10;97.90;;;;;;4976887;28;98386;-77
2022/03/11 05:09:04;;;;;;;18.10;9.43;;;-0.20;97.90;;;;;;4995663;28;94351;-78
2022/03/11 05:11:30;;;;;;;17.35;8.80;;;-0.30;98.40;;;;;;4983989;28;94551;-78
2022/03/11 05:13:55;;;;;;;16.63;9.57;;;-0.40;98.90;;;;;;4974674;28;96212;-77
2022/03/11 05:16:21;;;;;;;20.48;9.50;;;-0.50;99.10;;;;;;4957673;28;97769;-77
2022/03/11 05:18:47;;;;;;;23.95;10.10;;;-0.70;99.30;;;;;;4975309;28;94505;-77
2022/03/11 05:21:12;;;;;;;19.50;9.45;;;-0.80;99.40;;;;;;4974260;28;94503;-80
2022/03/11 05:23:38;;;;;;;15.93;8.27;;;-1.00;99.90;;;;;;4975057;28;95330;-77
2022/03/11 05:26:03;;;;;;;17.80;9.70;;;-1.10;99.90;;;;;;4974991;28;94678;-77
2022/03/11 05:28:29;;;;;;;20.83;10.77;;;-1.30;99.90;;;;;;4957729;28;94532;-77
2022/03/11 05:30:55;;;;;;;18.50;10.75;;;-1.40;99.90;;;;;;4975120;28;93817;-80
2022/03/11 05:33:20;;;;;;;23.05;10.27;;;-1.60;99.90;;;;;;4956349;28;96765;-77
2022/03/11 05:35:46;;;;;;;21.08;10.93;;;-1.60;99.90;;;;;;4974304;28;94994;-77
2022/03/11 05:38:11;;;;;;;23.85;11.57;;;-1.70;99.90;;;;;;4974479;28;95439;-79
2022/03/11 05:40:37;;;;;;;22.20;11.55;;;-1.70;99.90;;;;;;4974447;28;94477;-76
2022/03/11 05:43:03;;;;;;;22.50;11.05;;;-1.80;99.90;;;;;;4974858;28;94979;-77
2022/03/11 05:45:28;;;;;;;19.48;10.40;;;-1.90;99.90;;;;;;4959272;28;97240;-77
2022/03/11 05:47:54;;;;;;;21.88;11.18;;;-1.90;99.90;;;;;;4978361;28;94394;-79
2022/03/11 05:50:19;;;;;;;20.27;10.55;;;-2.00;99.90;;;;;;4960249;28;94545;-77
2022/03/11 05:52:47;;;;;;;19.27;10.40;;;-2.10;99.90;;;;;;4959811;28;97202;-77
2022/03/11 05:55:12;;;;;;;21.55;11.25;;;-2.10;99.90;;;;;;4977889;28;95300;-80
2022/03/11 05:57:38;;;;;;;18.58;10.43;;;-2.10;99.90;;;;;;4977718;28;94478;-77
2022/03/11 06:00:08;;;;;;;20.45;10.32;;;-2.10;99.90;;;;;;4977757;28;94554;-78
2022/03/11 06:02:37;;;;;;;21.42;11.60;;;-2.10;99.90;;;;;;4976547;28;96557;-78
2022/03/11 06:05:03;;;;;;;20.50;11.60;;;-2.10;99.90;;;;;;4959158;28;98858;-77
2022/03/11 06:07:28;;;;;;;26.83;12.38;;;-2.10;99.90;;;;;;4977479;28;94441;-78
2022/03/11 06:09:54;;;;;;;24.75;12.90;;;-2.10;99.90;;;;;;4959938;28;94512;-76
2022/03/11 06:12:21;;;;;;;24.95;13.23;;;-2.00;99.90;;;;;;4977287;28;95688;-76
2022/03/11 06:14:46;;;;;;;28.35;14.27;;;-1.90;99.90;;;;;;4977245;28;95182;-76
2022/03/11 06:17:15;;;;;;;23.33;12.13;;;-1.90;99.90;;;;;;4977363;28;94448;-77
2022/03/11 06:19:41;;;;;;;24.80;13.40;;;-1.90;99.90;;;;;;4977548;28;93612;-79
2022/03/11 06:22:06;;;;;;;27.00;12.57;;;-1.90;99.90;;;;;;4958835;28;98250;-76
2022/03/11 06:24:32;;;;;;;22.70;12.82;;;-1.80;99.90;;;;;;4959486;28;97624;-79
2022/03/11 06:26:57;;;;;;;26.40;12.73;;;-1.70;99.90;;;;;;4977114;28;95469;-78
2022/03/11 06:29:23;;;;;;;26.90;13.88;;;-1.70;99.90;;;;;;4977525;28;94536;-79
2022/03/11 06:31:49;;;;;;;25.30;13.50;;;-1.60;99.90;;;;;;4977005;28;95754;-79
2022/03/11 06:34:15;;;;;;;26.27;13.73;;;-1.50;99.90;;;;;;4962170;28;97428;-78
2022/03/11 06:36:40;;;;;;;27.83;14.00;;;-1.50;99.90;;;;;;4977863;28;94512;-79
2022/03/11 06:39:13;;;;;;;26.65;13.23;;;-1.40;99.90;;;;;;4960247;28;94514;-79
2022/03/11 06:41:42;;;;;;;29.60;14.25;;;-1.40;99.90;;;;;;4959604;28;98013;-77
2022/03/11 06:44:08;;;;;;;23.63;13.20;;;-1.40;99.90;;;;;;4977877;28;93737;-78
2022/03/11 06:46:34;;;;;;;24.38;13.63;;;-1.30;99.90;;;;;;4976966;28;94573;-78
2022/03/11 06:48:59;;;;;;;26.58;13.05;;;-1.30;99.90;;;;;;4983239;28;94440;-79
2022/03/11 06:51:25;;;;;;;27.15;13.20;;;-1.20;99.90;;;;;;4976509;28;95542;-77
2022/03/11 06:53:50;;;;;;;26.27;13.00;;;-1.20;99.90;;;;;;4977228;28;94615;-79
2022/03/11 06:56:16;;;;;;;24.45;12.60;;;-1.10;99.90;;;;;;4977143;28;94538;-79
2022/03/11 06:58:41;;;;;;;22.70;11.82;;;-1.00;99.90;;;;;;4977226;28;94518;-78
2022/03/11 07:01:07;;;;;;;19.90;10.98;;;-0.90;99.90;;;;;;4958863;28;96787;-77
2022/03/11 07:03:33;;;;;;;16.05;8.80;;;-0.80;99.90;;;;;;4959271;28;96864;-78
2022/03/11 07:06:00;;;;;;;20.90;9.10;;;-0.60;99.90;;;;;;4977804;28;94681;-78
2022/03/11 07:08:28;;;;;;;14.73;8.07;;;-0.50;99.90;;;;;;4978038;28;93634;-78
2022/03/11 07:10:53;;;;;;;14.93;7.57;;;-0.30;99.90;;;;;;4959838;28;97800;-78
2022/03/11 07:13:19;;;;;;;13.82;6.95;;;0.00;99.90;;;;;;4959997;28;96058;-78
2022/03/11 07:15:45;;;;;;;13.30;7.38;;;0.10;99.60;;;;;;4977130;28;95379;-79
2022/03/11 07:18:12;;;;;;;13.93;6.72;;;0.50;97.40;;;;;;4977707;28;94605;-77
2022/03/11 07:20:37;;;;;;;13.35;6.60;;;0.70;96.30;;;;;;4977044;28;94916;-78
2022/03/11 07:23:03;;;;;;;11.35;6.80;;;0.90;95.60;;;;;;4977330;28;94721;-78
2022/03/11 07:25:32;;;;;;;12.80;6.65;;;1.10;95.60;;;;;;4977499;28;94488;-77
2022/03/11 07:27:57;;;;;;;13.18;6.07;;;1.30;94.40;;;;;;4977346;28;94342;-76
2022/03/11 07:30:23;;;;;;;10.23;6.32;;;1.40;94.20;;;;;;4976981;28;94385;-76
2022/03/11 07:32:50;;;;;;;12.75;6.82;;;1.60;93.30;;;;;;4977608;28;94896;-76
2022/03/11 07:35:15;;;;;;;13.23;6.72;;;1.70;93.70;;;;;;4977596;28;94326;-76
2022/03/11 07:37:41;;;;;;;10.77;6.28;;;1.70;93.60;;;;;;4976460;28;94531;-76
2022/03/11 07:40:08;;;;;;;11.52;6.13;;;1.90;92.40;;;;;;4976188;28;96145;-76
2022/03/11 07:42:34;;;;;;;13.10;7.03;;;2.00;92.00;;;;;;4960761;28;97477;-75
2022/03/11 07:45:00;;;;;;;10.40;6.50;;;2.20;91.70;;;;;;4977520;28;94566;-76
2022/03/11 07:47:26;;;;;;;12.93;6.95;;;2.30;91.50;;;;;;4977290;28;94405;-75
2022/03/11 07:49:51;;;;;;;10.73;6.10;;;2.40;91.00;;;;;;4959713;28;97916;-75
2022/03/11 07:52:17;;;;;;;11.13;6.95;;;2.50;90.90;;;;;;4978910;28;95279;-76
2022/03/11 07:54:43;;;;;;;12.63;6.53;;;2.60;90.40;;;;;;4977538;28;94507;-76
2022/03/11 07:57:09;;;;;;;12.70;6.53;;;2.70;90.20;;;;;;4977438;28;93612;-76
2022/03/11 07:59:37;;;;;;;11.80;6.32;;;2.80;90.30;;;;;;4976703;28;95621;-76
2022/03/11 08:02:03;;;;;;;12.20;7.13;;;2.80;90.30;;;;;;4976254;28;94643;-76
2022/03/11 08:04:29;;;;;;;12.32;6.63;;;2.90;89.70;;;;;;4976761;28;95409;-76
2022/03/11 08:06:55;;;;;;;14.02;6.78;;;3.10;89.80;;;;;;4957806;28;94499;-76
2022/03/11 08:09:20;;;;;;;15.38;7.00;;;3.20;88.30;;;;;;4976812;28;95035;-77
2022/03/11 08:11:46;;;;;;;13.05;6.65;;;3.20;88.00;;;;;;4975980;28;94958;-76
2022/03/11 08:14:13;;;;;;;9.23;5.88;;;3.30;88.30;;;;;;4958763;28;94535;-76
2022/03/11 08:16:39;;;;;;;11.27;6.45;;;3.40;86.70;;;;;;4976234;28;94740;-77
2022/03/11 08:19:06;;;;;;;10.80;6.43;;;3.40;87.80;;;;;;4958531;28;97809;-76
2022/03/11 08:21:32;;;;;;;11.38;6.55;;;3.50;85.60;;;;;;4982002;28;94781;-77
2022/03/11 08:23:58;;;;;;;14.05;6.78;;;3.70;84.90;;;;;;4996321;28;94434;-77
2022/03/11 08:26:25;;;;;;;13.10;7.05;;;3.70;84.00;;;;;;4996008;28;94540;-77
2022/03/11 08:28:50;;;;;;;14.70;7.70;;;3.80;85.20;;;;;;4995283;28;96243;-77
2022/03/11 08:31:17;;;;;;;10.75;6.75;;;3.90;83.90;;;;;;4995935;28;96243;-77
2022/03/11 08:33:43;;;;;;;12.07;6.68;;;4.00;84.60;;;;;;4996211;28;94549;-77
2022/03/11 08:36:11;;;;;;;12.52;6.85;;;4.00;84.70;;;;;;4995665;28;94478;-77
2022/03/11 08:38:37;;;;;;;12.38;7.10;;;4.10;82.80;;;;;;4995387;28;96115;-77
2022/03/11 08:41:06;;;;;;;12.07;7.65;;;4.20;84.00;;;;;;4995264;28;94547;-75
2022/03/11 08:43:32;;;;;;;16.30;6.97;;;4.40;82.50;;;;;;4974464;28;94422;-78
2022/03/11 08:45:58;;;;;;;11.82;6.90;;;4.50;82.50;;;;;;4956227;28;93750;-75
2022/03/11 08:48:24;;;;;;;14.43;6.43;;;4.70;82.00;;;;;;4955832;28;94625;-75
2022/03/11 08:50:49;;;;;;;12.05;7.18;;;4.60;80.50;;;;;;4955693;28;94878;-76
2022/03/11 08:53:16;;;;;;;14.93;7.03;;;4.70;81.90;;;;;;4955944;28;95720;-76
2022/03/11 08:55:42;;;;;;;13.00;7.20;;;4.80;80.90;;;;;;4955276;28;94512;-75
2022/03/11 08:58:07;;;;;;;12.35;7.40;;;5.00;81.10;;;;;;4957143;28;95110;-75
2022/03/11 09:00:33;;;;;;;11.70;7.05;;;5.10;79.80;;;;;;4959532;28;94514;-75
2022/03/11 09:02:58;;;;;;;11.82;7.25;;;5.30;79.40;;;;;;4957742;28;94538;-75
2022/03/11 09:05:25;;;;;;;13.27;7.32;;;5.40;79.70;;;;;;4975423;28;94572;-75
2022/03/11 09:07:51;;;;;;;12.75;7.03;;;5.50;79.30;;;;;;4956877;28;96976;-75
2022/03/11 09:10:18;;;;;;;12.05;7.22;;;5.60;79.20;;;;;;4957652;28;98084;-76
2022/03/11 09:12:44;;;;;;;13.52;7.65;;;5.70;77.90;;;;;;4975538;28;94439;-76
2022/03/11 09:15:10;;;;;;;14.43;7.32;;;5.80;78.30;;;;;;4975412;28;94433;-75
2022/03/11 09:17:36;;;;;;;11.55;7.60;;;5.90;77.80;;;;;;4974071;28;96130;-75
2022/03/11 09:20:03;;;;;;;13.80;7.57;;;6.00;78.40;;;;;;4956686;28;96882;-75
2022/03/11 09:22:39;;;;;;;10.93;6.93;;;6.20;78.00;;;;;;4957063;28;94569;-75
2022/03/11 09:25:07;;;;;;;13.95;7.13;;;6.20;78.30;;;;;;4975221;28;94465;-75
2022/03/11 09:27:33;;;;;;;10.98;7.30;;;6.30;77.90;;;;;;4973942;28;94363;-75
2022/03/11 09:29:58;;;;;;;11.88;7.28;;;6.40;76.20;;;;;;4975010;28;94404;-75
2022/03/11 09:32:25;;;;;;;12.07;7.18;;;6.40;76.10;;;;;;4974877;28;94601;-74
2022/03/11 09:34:51;;;;;;;13.00;7.68;;;6.60;76.10;;;;;;4975526;28;93638;-74
2022/03/11 09:37:16;;;;;;;12.20;7.35;;;6.70;77.10;;;;;;4956543;28;96678;-75
2022/03/11 09:39:42;;;;;;;15.43;7.43;;;6.70;74.90;;;;;;4974838;28;94681;-75
2022/03/11 09:42:07;;;;;;;11.93;7.32;;;6.80;76.60;;;;;;4974608;28;95469;-74
2022/03/11 09:44:33;;;;;;;10.95;7.35;;;6.90;74.40;;;;;;4972602;28;95277;-73
2022/03/11 09:46:59;;;;;;;13.35;7.40;;;6.80;73.70;;;;;;4972706;28;95287;-73
2022/03/11 09:49:25;;;;;;;12.07;7.35;;;7.00;75.30;;;;;;4974019;28;94585;-74
2022/03/11 09:51:51;;;;;;;10.90;6.95;;;7.30;75.60;;;;;;4975007;28;94506;-75
2022/03/11 09:54:17;;;;;;;13.20;8.00;;;7.40;73.90;;;;;;4974968;28;94333;-74
2022/03/11 09:56:44;;;;;;;12.30;7.32;;;7.40;72.60;;;;;;4974020;28;95344;-75
2022/03/11 09:59:11;;;;;;;14.43;7.47;;;7.50;72.80;;;;;;4974753;28;94830;-74
2022/03/11 10:01:40;;;;;;;13.25;8.52;;;7.60;73.10;;;;;;4974444;28;94495;-74
2022/03/11 10:04:07;;;;;;;11.13;7.65;;;7.70;73.50;;;;;;4956843;28;94588;-74
2022/03/11 10:06:41;;;;;;;13.48;8.38;;;8.00;73.00;;;;;;4973630;28;95688;-74
2022/03/11 10:09:19;;;;;;;11.07;7.82;;;8.00;71.10;;;;;;4989412;28;97567;-74
2022/03/11 10:11:53;;;;;;;15.30;8.35;;;8.20;71.70;;;;;;4974691;28;94346;-75
2022/03/11 10:14:28;;;;;;;14.57;7.75;;;8.30;71.40;;;;;;4973113;28;94656;-74
2022/03/11 10:16:53;;;;;;;15.65;8.00;;;8.40;70.80;;;;;;4973263;28;98342;-74
2022/03/11 10:19:20;;;;;;;10.50;7.15;;;8.60;70.50;;;;;;4974225;28;96370;-74
2022/03/11 10:21:47;;;;;;;16.00;8.38;;;8.70;71.00;;;;;;4974834;28;94514;-74
2022/03/11 10:24:15;;;;;;;13.23;8.18;;;8.80;70.00;;;;;;4974708;28;93731;-74
2022/03/11 10:26:44;;;;;;;14.25;8.15;;;8.90;69.40;;;;;;4973852;28;95247;-74
2022/03/11 10:29:24;;;;;;;14.68;8.25;;;9.00;67.20;;;;;;4974247;28;94357;-73
2022/03/11 10:31:52;;;;;;;12.63;7.82;;;9.00;69.20;;;;;;4976722;28;95461;-74
2022/03/11 10:34:24;;;;;;;13.95;7.82;;;9.10;69.00;;;;;;4977797;28;94595;-74
2022/03/11 10:36:53;;;;;;;15.60;8.10;;;9.20;69.20;;;;;;4977691;28;95653;-75
2022/03/11 10:39:30;;;;;;;12.93;7.78;;;9.30;68.70;;;;;;4977628;28;94762;-75
2022/03/11 10:41:58;;;;;;;11.13;7.82;;;9.30;68.20;;;;;;4977943;28;94605;-73
2022/03/11 10:44:26;;;;;;;17.23;8.02;;;9.30;68.80;;;;;;4977683;28;94509;-74
2022/03/11 10:46:55;;;;;;;13.30;8.35;;;9.40;68.80;;;;;;4977802;28;95604;-73
2022/03/11 10:49:35;;;;;;;12.38;8.32;;;9.60;67.70;;;;;;4974652;28;93630;-74
2022/03/11 10:52:01;;;;;;;13.32;8.30;;;9.50;66.60;;;;;;4977289;28;94424;-74
2022/03/11 10:54:30;;;;;;;14.07;7.93;;;9.60;67.50;;;;;;4977307;28;95481;-75
2022/03/11 10:57:09;;;;;;;12.95;8.20;;;9.80;68.00;;;;;;4976080;28;95469;-74
2022/03/11 10:59:35;;;;;;;14.38;8.57;;;9.70;68.20;;;;;;4977342;28;96240;-74
2022/03/11 11:02:00;;;;;;;15.05;8.82;;;9.80;67.50;;;;;;4959168;28;94531;-75
2022/03/11 11:04:26;;;;;;;13.65;8.05;;;9.90;67.40;;;;;;4977246;28;94524;-75
2022/03/11 11:06:53;;;;;;;12.30;8.23;;;10.00;68.50;;;;;;4958182;28;97370;-75
2022/03/11 11:09:22;;;;;;;13.90;8.68;;;10.10;68.90;;;;;;4976826;28;95249;-75
2022/03/11 11:11:49;;;;;;;12.82;8.50;;;10.10;65.60;;;;;;4977129;28;94460;-76
2022/03/11 11:14:15;;;;;;;12.98;9.05;;;10.10;67.50;;;;;;4977412;28;93647;-75
2022/03/11 11:16:43;;;;;;;12.10;8.18;;;10.20;66.00;;;;;;4957416;28;96680;-76
2022/03/11 11:19:13;;;;;;;14.52;8.15;;;10.20;65.70;;;;;;4991271;28;96161;-75
2022/03/11 11:21:42;;;;;;;11.82;8.23;;;10.20;66.40;;;;;;4991673;28;95430;-75
2022/03/11 11:24:20;;;;;;;12.98;8.15;;;10.30;66.70;;;;;;4975397;28;94589;-76
2022/03/11 11:26:48;;;;;;;14.57;8.68;;;10.50;66.50;;;;;;4939011;28;98405;-75
2022/03/11 11:29:18;;;;;;;15.13;8.45;;;10.50;64.30;;;;;;4956810;28;94878;-75
2022/03/11 11:31:45;;;;;;;13.32;8.50;;;10.60;65.50;;;;;;4957236;28;94350;-75
2022/03/11 11:34:30;;;;;;;13.32;8.50;;;10.60;65.00;;;;;;4957143;28;94399;-75
2022/03/11 11:36:56;;;;;;;15.40;8.95;;;10.70;65.00;;;;;;4939112;28;98190;-75
2022/03/11 11:39:25;;;;;;;12.93;8.23;;;10.90;65.30;;;;;;4957010;28;94237;-75
2022/03/11 11:42:07;;;;;;;12.43;8.15;;;10.80;65.50;;;;;;4956155;28;94470;-75
2022/03/11 11:44:37;;;;;;;13.60;8.18;;;10.80;67.40;;;;;;4956984;28;94504;-76
2022/03/11 11:47:17;;;;;;;14.38;8.00;;;11.00;65.30;;;;;;4955705;28;96464;-76
2022/03/11 11:49:47;;;;;;;11.30;7.85;;;11.00;65.40;;;;;;4956784;28;95092;-76
2022/03/11 11:52:36;;;;;;;14.02;7.63;;;11.10;63.90;;;;;;4956985;28;94388;-75
2022/03/11 11:55:19;;;;;;;14.23;8.45;;;11.20;63.80;;;;;;4956831;28;94379;-75
2022/03/11 11:57:46;;;;;;;12.02;7.85;;;11.50;64.10;;;;;;4938132;28;97390;-75
2022/03/11 12:00:36;;;;;;;16.23;9.93;;;11.70;63.50;;;;;;4956066;28;94945;-75
2022/03/11 12:03:03;;;;;;;14.02;8.02;;;11.80;61.90;;;;;;4939255;28;94583;-76
2022/03/11 12:05:46;;;;;;;16.15;9.18;;;11.60;61.40;;;;;;4956947;28;93857;-75
2022/03/11 12:08:33;;;;;;;16.98;9.15;;;11.70;66.40;;;;;;4956538;28;94402;-75
2022/03/11 12:10:59;;;;;;;15.32;7.85;;;12.10;64.10;;;;;;4956003;28;94392;-75
2022/03/11 12:13:32;;;;;;;13.95;8.65;;;12.20;64.10;;;;;;4937545;28;96103;-76
2022/03/11 12:15:58;;;;;;;12.35;8.63;;;12.40;62.70;;;;;;4955427;28;94637;-75
2022/03/11 12:18:34;;;;;;;12.20;8.13;;;12.30;60.00;;;;;;4956180;28;94449;-76
2022/03/11 12:21:00;;;;;;;13.73;8.50;;;12.40;61.00;;;;;;4937508;28;97875;-76
2022/03/11 12:23:33;;;;;;;15.25;8.70;;;12.40;61.70;;;;;;4938975;28;94575;-75
2022/03/11 12:26:07;;;;;;;13.45;8.70;;;12.60;60.80;;;;;;4956089;28;94399;-76
2022/03/11 12:28:35;;;;;;;13.05;8.68;;;12.90;60.20;;;;;;4955874;28;95362;-75
2022/03/11 12:31:09;;;;;;;14.15;8.88;;;13.10;59.60;;;;;;4956207;28;94097;-75
2022/03/11 12:33:44;;;;;;;13.20;8.75;;;13.10;59.80;;;;;;4938729;28;95201;-76
2022/03/11 12:36:15;;;;;;;12.15;8.57;;;13.20;59.10;;;;;;4956209;28;94376;-75
2022/03/11 12:38:41;;;;;;;15.55;9.05;;;13.20;59.00;;;;;;4955114;28;96140;-76
2022/03/11 12:41:10;;;;;;;12.27;8.38;;;13.10;58.80;;;;;;4937919;28;97633;-74
2022/03/11 12:43:37;;;;;;;13.25;8.15;;;13.20;61.10;;;;;;4956248;28;94375;-75
2022/03/11 12:46:03;;;;;;;12.63;8.38;;;13.30;59.80;;;;;;4956135;28;95054;-76
2022/03/11 12:48:33;;;;;;;13.95;9.00;;;13.40;58.60;;;;;;4938203;28;96873;-76
2022/03/11 12:51:00;;;;;;;16.17;9.50;;;13.70;59.00;;;;;;4955481;28;94971;-76
2022/03/11 12:53:26;;;;;;;15.43;9.10;;;13.70;59.20;;;;;;4955890;28;94454;-76
2022/03/11 12:55:54;;;;;;;14.60;9.57;;;13.90;59.10;;;;;;4956099;28;94086;-75
2022/03/11 12:58:35;;;;;;;13.88;9.07;;;14.30;58.20;;;;;;4954869;28;97073;-76
2022/03/11 13:01:06;;;;;;;14.15;9.13;;;14.30;56.70;;;;;;4955241;28;94803;-75
2022/03/11 13:03:33;;;;;;;12.45;8.50;;;14.40;57.60;;;;;;4955728;28;95708;-76
2022/03/11 13:06:01;;;;;;;13.15;9.10;;;14.30;57.70;;;;;;4955473;28;94506;-76
2022/03/11 13:08:29;;;;;;;13.93;9.10;;;14.50;57.20;;;;;;4955459;28;98178;-76
2022/03/11 13:10:55;;;;;;;14.02;9.00;;;14.40;56.40;;;;;;4954966;28;95919;-75
2022/03/11 13:13:22;;;;;;;11.93;8.65;;;14.40;57.40;;;;;;4955871;28;94508;-75
2022/03/11 13:15:54;;;;;;;13.05;9.02;;;14.60;57.50;;;;;;4955552;28;94433;-76
2022/03/11 13:18:22;;;;;;;15.05;8.93;;;14.80;57.10;;;;;;4955623;28;94549;-76
2022/03/11 13:20:58;;;;;;;12.10;8.70;;;14.80;57.00;;;;;;4954954;28;97842;-76
2022/03/11 13:23:25;;;;;;;12.30;8.70;;;14.70;55.70;;;;;;4956067;28;94451;-76
2022/03/11 13:26:18;;;;;;;17.63;8.85;;;14.80;55.50;;;;;;4955387;28;94535;-77
2022/03/11 13:28:47;;;;;;;15.85;9.40;;;14.80;56.20;;;;;;4955001;28;96081;-76
2022/03/11 13:31:17;;;;;;;16.85;9.25;;;14.80;56.40;;;;;;4954165;28;98117;-76
2022/03/11 13:33:44;;;;;;;13.15;9.00;;;14.80;55.10;;;;;;4955059;28;94389;-75
2022/03/11 13:36:23;;;;;;;14.18;9.50;;;14.80;56.10;;;;;;4955267;28;94484;-75
2022/03/11 13:38:54;;;;;;;18.00;9.27;;;15.00;54.70;;;;;;4955427;28;95645;-76
2022/03/11 13:41:26;;;;;;;14.82;9.02;;;14.80;55.10;;;;;;4954630;28;94933;-76
2022/03/11 13:44:03;;;;;;;13.27;8.52;;;14.80;55.40;;;;;;4955720;28;94649;-76
2022/03/11 13:46:31;;;;;;;14.27;8.73;;;14.80;55.90;;;;;;4955601;28;93792;-76
2022/03/11 13:49:05;;;;;;;14.45;9.25;;;14.80;55.90;;;;;;4955205;28;94590;-76
2022/03/11 13:51:51;;;;;;;14.07;9.13;;;14.60;56.00;;;;;;4937071;28;97953;-76
2022/03/11 13:54:37;;;;;;;13.13;9.07;;;14.40;56.20;;;;;;4955232;28;96023;-75
2022/03/11 13:57:26;;;;;;;14.20;9.48;;;14.20;56.10;;;;;;4955111;28;94469;-76
2022/03/11 13:59:58;;;;;;;14.50;9.35;;;14.40;57.10;;;;;;4955311;28;95626;-78
2022/03/11 14:02:28;;;;;;;15.68;9.93;;;14.60;56.20;;;;;;4937067;28;96271;-78
2022/03/11 14:05:13;;;;;;;15.48;9.82;;;14.60;55.10;;;;;;4955502;28;94415;-76
2022/03/11 14:07:43;;;;;;;15.10;9.40;;;14.60;56.30;;;;;;4969508;28;94474;-77
2022/03/11 14:10:15;;;;;;;17.80;10.00;;;14.60;55.40;;;;;;4979046;28;97085;-77
2022/03/11 14:12:41;;;;;;;13.13;9.15;;;14.50;55.30;;;;;;4997666;28;94170;-78
2022/03/11 14:15:09;;;;;;;15.95;9.63;;;14.40;55.80;;;;;;4998313;28;94360;-77
2022/03/11 14:17:34;;;;;;;17.25;10.02;;;14.50;55.00;;;;;;4999053;28;94565;-78
2022/03/11 14:20:03;;;;;;;15.55;10.02;;;14.50;56.40;;;;;;4979015;28;97758;-77
2022/03/11 14:22:28;;;;;;;17.33;9.95;;;14.60;54.90;;;;;;4996781;28;95976;-77
2022/03/11 14:24:54;;;;;;;20.42;13.23;;;14.50;55.40;;;;;;4997432;28;94443;-77
2022/03/11 14:27:21;;;;;;;15.80;10.52;;;14.40;56.60;;;;;;4996788;28;94508;-78
2022/03/11 14:29:47;;;;;;;15.40;9.48;;;14.40;55.90;;;;;;4979229;28;97910;-78
2022/03/11 14:32:12;;;;;;;18.65;11.07;;;14.60;55.10;;;;;;4999785;28;95817;-78
2022/03/11 14:34:38;;;;;;;18.00;10.98;;;14.60;55.80;;;;;;4993385;28;94401;-79
2022/03/11 14:37:06;;;;;;;14.50;9.63;;;14.80;55.00;;;;;;4961135;28;94288;-79
2022/03/11 14:39:32;;;;;;;15.18;9.80;;;15.30;54.50;;;;;;4959520;28;97022;-76
2022/03/11 14:41:58;;;;;;;16.65;10.07;;;16.20;52.40;;;;;;4960012;28;98159;-78
2022/03/11 14:44:24;;;;;;;15.20;11.20;;;16.80;50.80;;;;;;4974722;28;95442;-78
2022/03/11 14:46:49;;;;;;;15.90;10.10;;;17.90;49.20;;;;;;4947462;28;94624;-77
2022/03/11 14:49:15;;;;;;;19.23;9.40;;;18.40;48.10;;;;;;4976190;28;95384;-77
2022/03/11 14:51:41;;;;;;;17.38;9.40;;;19.10;47.20;;;;;;4975388;28;96143;-77
2022/03/11 14:54:07;;;;;;;14.75;10.15;;;19.80;45.40;;;;;;4974996;28;94386;-77
2022/03/11 14:56:33;;;;;;;14.93;10.07;;;19.10;45.30;;;;;;4977871;28;94876;-76
2022/03/11 14:58:58;;;;;;;14.45;10.07;;;19.10;46.10;;;;;;4985129;28;96793;-76
2022/03/11 15:01:24;;;;;;;13.77;10.23;;;19.70;44.90;;;;;;4976225;28;94146;-76
2022/03/11 15:03:51;;;;;;;15.52;9.85;;;19.80;43.90;;;;;;4957277;28;94529;-76
2022/03/11 15:06:17;;;;;;;13.32;10.38;;;20.30;45.60;;;;;;4958280;28;95017;-75
2022/03/11 15:08:44;;;;;;;16.58;11.40;;;20.10;43.20;;;;;;4975563;28;96301;-77
2022/03/11 15:11:10;;;;;;;15.48;10.40;;;20.00;43.90;;;;;;4976364;28;96624;-78
2022/03/11 15:13:36;;;;;;;14.75;10.23;;;19.80;43.90;;;;;;4958745;28;94382;-77
2022/03/11 15:16:02;;;;;;;13.05;10.48;;;20.50;42.90;;;;;;4976732;28;94334;-76
2022/03/11 15:18:27;;;;;;;16.42;10.35;;;19.90;42.50;;;;;;4976499;28;95418;-76
2022/03/11 15:20:53;;;;;;;14.45;10.10;;;20.40;43.00;;;;;;4976074;28;94837;-76
2022/03/11 15:23:18;;;;;;;17.30;11.18;;;20.80;41.90;;;;;;4976495;28;94557;-77
2022/03/11 15:25:46;;;;;;;15.57;10.27;;;20.40;42.50;;;;;;4976707;28;94070;-76
2022/03/11 15:28:12;;;;;;;15.48;11.30;;;20.40;42.10;;;;;;4976032;28;95080;-76
2022/03/11 15:30:39;;;;;;;14.95;9.95;;;20.30;43.00;;;;;;4975800;28;95083;-77
2022/03/11 15:33:04;;;;;;;15.85;10.10;;;20.30;42.50;;;;;;4976683;28;95357;-76
2022/03/11 15:35:30;;;;;;;14.60;10.15;;;20.30;42.20;;;;;;4976074;28;94501;-77
2022/03/11 15:37:56;;;;;;;11.95;9.15;;;20.00;42.30;;;;;;4975332;28;95342;-76
2022/03/11 15:40:23;;;;;;;15.55;10.55;;;20.40;42.10;;;;;;4976496;28;94635;-77
2022/03/11 15:42:53;;;;;;;14.80;10.38;;;20.20;41.80;;;;;;4975015;28;94524;-76
2022/03/11 15:45:20;;;;;;;14.15;10.55;;;20.00;41.80;;;;;;4976182;28;94354;-77
2022/03/11 15:47:46;;;;;;;14.65;10.85;;;19.80;43.10;;;;;;4975869;28;95040;-77
2022/03/11 15:50:14;;;;;;;15.32;10.77;;;19.10;43.20;;;;;;4976185;28;95288;-75
2022/03/11 15:52:39;;;;;;;14.15;10.70;;;19.20;44.00;;;;;;4975949;28;94481;-77
2022/03/11 15:55:19;;;;;;;13.13;9.82;;;18.20;44.00;;;;;;4976123;28;94546;-76
2022/03/11 15:57:46;;;;;;;14.73;10.25;;;17.70;44.90;;;;;;4975944;28;96172;-76
2022/03/11 16:00:13;;;;;;;15.38;9.95;;;17.20;46.60;;;;;;4975549;28;94717;-76
2022/03/11 16:02:39;;;;;;;16.42;10.93;;;16.80;46.90;;;;;;4976650;28;94557;-78
2022/03/11 16:05:05;;;;;;;15.60;11.13;;;16.50;47.40;;;;;;4976252;28;94424;-77
2022/03/11 16:07:30;;;;;;;15.65;10.73;;;16.00;47.60;;;;;;4976210;28;95775;-77
2022/03/11 16:09:56;;;;;;;14.85;10.95;;;15.60;48.20;;;;;;4976411;28;94837;-77
2022/03/11 16:12:22;;;;;;;17.58;10.98;;;15.20;48.80;;;;;;4975494;28;94616;-77
2022/03/11 16:14:47;;;;;;;16.58;10.20;;;14.50;50.00;;;;;;4975845;28;93607;-76
2022/03/11 16:17:17;;;;;;;17.48;11.18;;;14.20;51.30;;;;;;4975148;28;98120;-76
2022/03/11 16:19:43;;;;;;;15.93;10.65;;;13.60;52.10;;;;;;4975279;28;96466;-77
2022/03/11 16:22:09;;;;;;;16.75;10.85;;;13.20;52.70;;;;;;4956787;28;95607;-77
2022/03/11 16:24:35;;;;;;;14.52;10.52;;;12.80;53.50;;;;;;4975827;28;94514;-77
2022/03/11 16:27:02;;;;;;;16.00;9.80;;;12.60;54.50;;;;;;4975420;28;94555;-77
2022/03/11 16:29:28;;;;;;;15.32;10.82;;;12.40;54.60;;;;;;4975844;28;95339;-77
2022/03/11 16:31:57;;;;;;;15.52;10.60;;;12.10;55.60;;;;;;4976937;28;94390;-78
2022/03/11 16:34:27;;;;;;;17.33;10.13;;;11.90;55.80;;;;;;4975874;28;94516;-79
2022/03/11 16:36:52;;;;;;;18.17;10.55;;;11.80;56.30;;;;;;4957326;28;97806;-78
2022/03/11 16:39:18;;;;;;;15.80;10.05;;;11.70;56.30;;;;;;4969946;28;96510;-78
2022/03/11 16:41:43;;;;;;;19.08;10.82;;;11.50;56.80;;;;;;4980102;28;94409;-79
2022/03/11 16:44:12;;;;;;;17.60;10.35;;;11.30;57.40;;;;;;4980939;28;94382;-77
2022/03/11 16:46:38;;;;;;;17.40;11.38;;;11.20;57.70;;;;;;4965036;28;99227;-77
2022/03/11 16:49:03;;;;;;;19.58;13.30;;;11.10;57.40;;;;;;4941114;28;97420;-77
2022/03/11 16:51:29;;;;;;;19.17;13.82;;;11.00;57.60;;;;;;4976715;28;94526;-77
2022/03/11 16:53:56;;;;;;;15.43;10.63;;;10.80;57.90;;;;;;4977199;28;94502;-77
2022/03/11 16:56:21;;;;;;;18.27;10.80;;;10.60;57.90;;;;;;4976528;28;94970;-77
2022/03/11 16:58:47;;;;;;;20.85;11.02;;;10.60;58.00;;;;;;4986440;28;95458;-77
2022/03/11 17:01:12;;;;;;;16.92;9.45;;;10.40;58.40;;;;;;4982327;28;94445;-77
2022/03/11 17:03:38;;;;;;;16.52;10.05;;;10.20;58.70;;;;;;4981041;28;94043;-77
2022/03/11 17:06:04;;;;;;;16.10;9.90;;;10.10;58.90;;;;;;4973694;28;95828;-77
2022/03/11 17:08:29;;;;;;;17.75;9.88;;;9.90;59.30;;;;;;4963486;28;97530;-77
2022/03/11 17:10:55;;;;;;;16.73;9.98;;;9.80;59.80;;;;;;4978413;28;95894;-76
2022/03/11 17:13:20;;;;;;;19.38;10.35;;;9.80;59.80;;;;;;4989562;28;94990;-77
2022/03/11 17:15:46;;;;;;;16.17;8.95;;;9.80;60.00;;;;;;4986707;22;95452;-75
2022/03/11 17:18:14;;;;;;;14.07;9.00;;;9.80;58.60;;;;;;4954889;28;95186;-74
2022/03/11 17:20:40;;;;;;;14.82;9.32;;;9.70;58.40;;;;;;4955826;28;95035;-79
2022/03/11 17:23:06;;;;;;;15.75;9.60;;;9.60;58.80;;;;;;4940863;28;94611;-79
2022/03/11 17:25:36;;;;;;;14.60;9.23;;;9.50;59.20;;;;;;4939603;28;96266;-79
2022/03/11 17:28:04;;;;;;;17.35;9.13;;;9.30;59.90;;;;;;4943555;28;95245;-79
2022/03/11 17:30:30;;;;;;;17.95;9.57;;;9.20;59.70;;;;;;4950112;28;94621;-80
2022/03/11 17:32:56;;;;;;;17.30;10.05;;;8.90;61.00;;;;;;4956631;28;94622;-79
2022/03/11 17:35:22;;;;;;;16.20;10.40;;;8.70;61.20;;;;;;4949245;28;96353;-80
2022/03/11 17:37:47;;;;;;;18.00;9.93;;;8.70;60.50;;;;;;4952373;28;97928;-79
2022/03/11 17:40:13;;;;;;;17.60;9.23;;;9.10;58.80;;;;;;4975955;28;94821;-79
2022/03/11 17:42:39;;;;;;;17.33;9.02;;;9.00;59.20;;;;;;4961461;28;94480;-78